Time;durP1;ratioP1;P1;durP2;ratioP2;P2;SDS_P1;SDS_P2;PMS_P1;PMS_P2;Temp;Humidity;BMP_temperature;BMP_pressure;BME280_temperature;BME280_humidity;BME280_pressure;Samples;Min_cycle;Max_cycle;Signal;HPM_P1;HPM_P2
2022/12/02 00:00:14;;;;;;;;;;;;;;;9.72;46.24;99727.59;4513343;31;34698;-85
2022/12/02 00:02:42;;;;;;;;;;;;;;;9.81;46.01;99725.25;4510450;31;33510;-86
2022/12/02 00:05:15;;;;;;;;;;;;;;;9.93;45.77;99733.31;4514426;31;33727;-86
2022/12/02 00:07:42;;;;;;;;;;;;;;;10.46;44.37;99723.38;4509146;31;33867;-85
2022/12/02 00:10:30;;;;;;;;;;;;;;;10.12;44.49;99724.28;4499181;31;34176;-86
2022/12/02 00:13:04;;;;;;;;;;;;;;;9.14;46.87;99726.97;4498986;31;33441;-86
2022/12/02 00:15:37;;;;;;;;;;;;;;;9.44;46.39;99728.63;4497779;31;34022;-86
2022/12/02 00:18:04;;;;;;;;;;;;;;;8.91;48.13;99731.50;4505088;31;33967;-86
2022/12/02 00:20:31;;;;;;;;;;;;;;;9.83;45.54;99726.16;4498451;31;33960;-85
2022/12/02 00:22:58;;;;;;;;;;;;;;;9.59;45.98;99720.38;4503867;31;33249;-86
2022/12/02 00:25:26;;;;;;;;;;;;;;;8.98;46.65;99724.78;4514712;31;34634;-86
2022/12/02 00:27:54;;;;;;;;;;;;;;;9.52;46.15;99724.53;4509700;31;35228;-85
2022/12/02 00:30:21;;;;;;;;;;;;;;;9.55;45.73;99719.44;4514419;31;34879;-86
2022/12/02 00:32:48;;;;;;;;;;;;;;;10.09;44.79;99733.69;4513422;31;34430;-86
2022/12/02 00:35:16;;;;;;;;;;;;;;;10.00;44.70;99731.78;4513911;31;35073;-86
2022/12/02 00:37:43;;;;;;;;;;;;;;;9.99;44.64;99735.19;4514397;31;33518;-85
2022/12/02 00:40:10;;;;;;;;;;;;;;;9.65;45.52;99726.56;4514218;31;34470;-85
2022/12/02 00:42:38;;;;;;;;;;;;;;;9.37;46.28;99726.72;4511205;31;33733;-86
2022/12/02 00:47:52;;;;;;;;;;;;;;;9.31;45.69;99719.66;4513326;31;35236;-86
2022/12/02 00:50:19;;;;;;;;;;;;;;;9.26;45.95;99722.12;4500284;31;33862;-86
2022/12/02 00:52:46;;;;;;;;;;;;;;;8.13;48.44;99723.94;4499080;31;33480;-85
2022/12/02 00:55:14;;;;;;;;;;;;;;;8.49;48.00;99719.09;4499908;31;34842;-85
2022/12/02 00:57:41;;;;;;;;;;;;;;;8.49;48.06;99716.50;4514629;31;34412;-85
2022/12/02 01:00:08;;;;;;;;;;;;;;;8.41;47.74;99719.66;4501307;31;34894;-86
2022/12/02 01:02:37;;;;;;;;;;;;;;;9.54;45.50;99715.06;4500069;31;33600;-85
2022/12/02 01:05:04;;;;;;;;;;;;;;;8.77;47.09;99720.75;4512204;31;33949;-86
2022/12/02 01:07:32;;;;;;;;;;;;;;;8.08;48.68;99717.78;4509462;31;33412;-85
2022/12/02 01:09:59;;;;;;;;;;;;;;;8.45;48.57;99716.38;4506051;31;34421;-86
2022/12/02 01:12:26;;;;;;;;;;;;;;;7.56;50.10;99705.75;4508575;31;33321;-86
2022/12/02 01:14:53;;;;;;;;;;;;;;;8.54;47.99;99711.47;4513765;31;34230;-86
2022/12/02 01:17:21;;;;;;;;;;;;;;;7.74;49.93;99708.06;4509927;31;34174;-85
2022/12/02 01:19:48;;;;;;;;;;;;;;;7.77;49.69;99710.75;4501259;31;34126;-85
2022/12/02 01:22:15;;;;;;;;;;;;;;;6.59;52.73;99711.78;4510246;31;34193;-86
2022/12/02 01:24:43;;;;;;;;;;;;;;;7.29;51.31;99708.28;4497772;31;34356;-86
2022/12/02 01:27:10;;;;;;;;;;;;;;;7.36;50.87;99710.25;4511013;31;34156;-85
2022/12/02 01:29:37;;;;;;;;;;;;;;;8.10;49.14;99700.59;4513771;31;35120;-85
2022/12/02 01:32:04;;;;;;;;;;;;;;;7.23;50.67;99696.03;4513250;31;33106;-86
2022/12/02 01:34:31;;;;;;;;;;;;;;;7.34;51.04;99698.13;4513986;31;34935;-86
2022/12/02 01:36:58;;;;;;;;;;;;;;;7.47;50.59;99692.56;4513176;31;35104;-86
2022/12/02 01:39:26;;;;;;;;;;;;;;;7.56;50.42;99687.69;4513744;31;34091;-85
2022/12/02 01:41:53;;;;;;;;;;;;;;;7.44;50.74;99692.47;4513081;31;33540;-85
2022/12/02 01:44:20;;;;;;;;;;;;;;;7.93;49.70;99699.22;4512574;31;33983;-85
2022/12/02 01:46:48;;;;;;;;;;;;;;;7.57;50.57;99695.47;4513396;31;35246;-86
2022/12/02 01:49:15;;;;;;;;;;;;;;;6.95;52.13;99686.47;4515226;31;34323;-85
2022/12/02 01:51:42;;;;;;;;;;;;;;;7.23;50.84;99690.88;4514259;31;33377;-86
2022/12/02 01:54:09;;;;;;;;;;;;;;;6.49;52.89;99696.81;4515402;31;34848;-83
2022/12/02 01:56:37;;;;;;;;;;;;;;;6.72;52.91;99697.66;4515837;31;34210;-85
2022/12/02 01:59:04;;;;;;;;;;;;;;;7.29;50.64;99685.94;4515788;31;35044;-85
2022/12/02 02:01:32;;;;;;;;;;;;;;;7.30;50.64;99690.28;4515669;31;33156;-85
2022/12/02 02:04:00;;;;;;;;;;;;;;;8.04;48.61;99682.34;4515135;31;34055;-86
2022/12/02 02:06:28;;;;;;;;;;;;;;;7.07;50.99;99691.19;4501413;31;35079;-86
2022/12/02 02:08:55;;;;;;;;;;;;;;;6.97;51.48;99689.09;4514212;31;34438;-85
2022/12/02 02:11:22;;;;;;;;;;;;;;;6.94;51.39;99694.16;4506999;31;33315;-86
2022/12/02 02:13:54;;;;;;;;;;;;;;;6.86;51.66;99695.56;4514610;31;33800;-86
2022/12/02 02:16:21;;;;;;;;;;;;;;;6.45;52.28;99695.81;4514825;31;34952;-86
2022/12/02 02:18:48;;;;;;;;;;;;;;;6.69;52.02;99702.69;4506957;31;34673;-85
2022/12/02 02:21:20;;;;;;;;;;;;;;;7.23;50.70;99696.03;4512189;31;33261;-84
2022/12/02 02:23:47;;;;;;;;;;;;;;;7.37;50.55;99703.37;4502684;31;34416;-86
2022/12/02 02:26:14;;;;;;;;;;;;;;;8.32;47.85;99698.69;4499866;31;34944;-85
2022/12/02 02:28:42;;;;;;;;;;;;;;;7.44;50.31;99697.63;4498440;31;34155;-86
2022/12/02 02:31:09;;;;;;;;;;;;;;;7.97;48.87;99704.53;4506487;31;33935;-86
2022/12/02 02:33:37;;;;;;;;;;;;;;;7.41;50.41;99698.38;4506632;31;33745;-86
2022/12/02 02:36:05;;;;;;;;;;;;;;;6.81;51.56;99710.87;4514203;31;33713;-86
2022/12/02 02:38:32;;;;;;;;;;;;;;;6.48;52.43;99711.41;4512257;31;34210;-85
2022/12/02 02:41:00;;;;;;;;;;;;;;;7.25;50.35;99698.69;4506357;31;33522;-86
2022/12/02 02:43:27;;;;;;;;;;;;;;;7.47;50.20;99708.03;4515038;31;34088;-86
2022/12/02 02:45:55;;;;;;;;;;;;;;;6.98;51.20;99707.22;4514907;31;33579;-86
2022/12/02 02:48:23;;;;;;;;;;;;;;;6.66;51.76;99711.19;4514271;31;33714;-85
2022/12/02 02:50:50;;;;;;;;;;;;;;;6.37;52.20;99711.81;4514558;31;33085;-85
2022/12/02 02:53:19;;;;;;;;;;;;;;;6.12;52.67;99700.56;4511942;31;33952;-85
2022/12/02 02:55:47;;;;;;;;;;;;;;;6.03;52.71;99705.34;4509900;31;34061;-85
2022/12/02 02:58:16;;;;;;;;;;;;;;;6.75;51.50;99697.78;4508342;31;33637;-84
2022/12/02 03:00:45;;;;;;;;;;;;;;;6.21;52.80;99700.03;4508207;31;33658;-85
2022/12/02 03:03:12;;;;;;;;;;;;;;;6.67;51.58;99694.94;4513215;31;33654;-86
2022/12/02 03:05:39;;;;;;;;;;;;;;;6.62;51.55;99686.13;4514386;31;34450;-86
2022/12/02 03:08:07;;;;;;;;;;;;;;;6.76;50.71;99697.81;4511723;31;35162;-86
2022/12/02 03:10:34;;;;;;;;;;;;;;;7.06;50.35;99689.44;4497877;31;33472;-86
2022/12/02 03:13:02;;;;;;;;;;;;;;;6.55;51.44;99694.44;4497999;31;33952;-86
2022/12/02 03:15:30;;;;;;;;;;;;;;;6.98;50.22;99689.16;4501119;31;34874;-86
2022/12/02 03:17:57;;;;;;;;;;;;;;;6.31;52.04;99686.69;4509552;31;35140;-86
2022/12/02 03:20:24;;;;;;;;;;;;;;;5.77;53.47;99694.88;4512634;31;33344;-85
2022/12/02 03:22:51;;;;;;;;;;;;;;;5.59;54.25;99692.41;4510600;31;33676;-86
2022/12/02 03:25:18;;;;;;;;;;;;;;;6.16;52.31;99689.56;4512727;31;34187;-85
2022/12/02 03:27:46;;;;;;;;;;;;;;;6.26;51.45;99691.69;4507506;31;35338;-86
2022/12/02 03:30:13;;;;;;;;;;;;;;;5.79;53.31;99685.50;4512417;31;32281;-86
2022/12/02 03:32:44;;;;;;;;;;;;;;;6.45;51.80;99687.22;4513065;31;34058;-86
2022/12/02 03:35:12;;;;;;;;;;;;;;;7.24;49.96;99676.31;4506977;31;34930;-86
2022/12/02 03:37:39;;;;;;;;;;;;;;;7.47;49.01;99675.38;4512020;31;35060;-86
2022/12/02 03:40:06;;;;;;;;;;;;;;;7.72;48.62;99681.31;4506105;31;34201;-86
2022/12/02 03:42:34;;;;;;;;;;;;;;;6.54;51.03;99684.97;4513904;31;34155;-85
2022/12/02 03:45:01;;;;;;;;;;;;;;;7.73;48.37;99676.22;4514735;31;35121;-86
2022/12/02 03:47:28;;;;;;;;;;;;;;;8.35;46.73;99678.12;4503465;31;34406;-86
2022/12/02 03:49:56;;;;;;;;;;;;;;;8.32;46.76;99670.28;4503157;31;33396;-86
2022/12/02 03:52:23;;;;;;;;;;;;;;;9.19;44.82;99671.03;4515053;31;35157;-86
2022/12/02 03:54:50;;;;;;;;;;;;;;;9.50;44.44;99670.09;4514566;31;34083;-86
2022/12/02 03:57:22;;;;;;;;;;;;;;;9.63;43.90;99675.63;4504709;31;35122;-86
2022/12/02 03:59:49;;;;;;;;;;;;;;;8.33;46.18;99677.19;4507568;31;33615;-86
2022/12/02 04:02:16;;;;;;;;;;;;;;;8.81;45.15;99679.47;4508820;31;34157;-86
2022/12/02 04:04:43;;;;;;;;;;;;;;;9.44;43.97;99679.44;4513742;31;35201;-86
2022/12/02 04:07:11;;;;;;;;;;;;;;;8.22;46.80;99688.09;4514440;31;35144;-86
2022/12/02 04:09:38;;;;;;;;;;;;;;;7.69;47.66;99684.72;4509547;31;33603;-84
2022/12/02 04:12:05;;;;;;;;;;;;;;;8.19;46.59;99688.00;4508731;31;34486;-86
2022/12/02 04:14:32;;;;;;;;;;;;;;;7.83;47.32;99684.25;4514548;31;35068;-85
2022/12/02 04:16:59;;;;;;;;;;;;;;;7.86;47.06;99686.94;4499799;31;34973;-86
2022/12/02 04:19:34;;;;;;;;;;;;;;;7.98;47.42;99679.56;4504027;31;33256;-86
2022/12/02 04:22:01;;;;;;;;;;;;;;;7.79;47.73;99684.16;4514302;31;34106;-86
2022/12/02 04:24:28;;;;;;;;;;;;;;;6.24;51.27;99688.16;4501367;31;34360;-85
2022/12/02 04:26:56;;;;;;;;;;;;;;;7.30;49.21;99687.69;4510836;31;34976;-86
2022/12/02 04:29:23;;;;;;;;;;;;;;;6.68;50.43;99688.06;4505354;31;33067;-86
2022/12/02 04:31:50;;;;;;;;;;;;;;;7.31;49.23;99680.81;4510902;31;33765;-86
2022/12/02 04:34:18;;;;;;;;;;;;;;;6.96;49.97;99688.22;4512322;31;35225;-84
2022/12/02 04:36:45;;;;;;;;;;;;;;;7.52;48.66;99691.88;4512782;31;34580;-85
2022/12/02 04:39:12;;;;;;;;;;;;;;;7.92;47.83;99687.16;4499246;31;33219;-85
2022/12/02 04:41:40;;;;;;;;;;;;;;;7.92;47.69;99684.56;4512369;31;35272;-86
2022/12/02 04:44:07;;;;;;;;;;;;;;;7.99;47.62;99683.91;4514678;31;33647;-85
2022/12/02 04:46:34;;;;;;;;;;;;;;;8.51;46.20;99685.53;4515007;31;33893;-86
2022/12/02 04:49:02;;;;;;;;;;;;;;;8.12;47.10;99685.19;4513724;31;33292;-86
2022/12/02 04:51:29;;;;;;;;;;;;;;;7.83;47.19;99684.25;4512806;31;34520;-85
2022/12/02 04:53:56;;;;;;;;;;;;;;;8.05;46.99;99682.41;4514056;31;32814;-86
2022/12/02 04:56:24;;;;;;;;;;;;;;;8.55;45.62;99682.19;4513727;31;35208;-86
2022/12/02 04:58:51;;;;;;;;;;;;;;;7.99;46.98;99683.91;4504969;31;33597;-86
2022/12/02 05:01:18;;;;;;;;;;;;;;;8.28;46.20;99680.50;4499361;31;34042;-84
2022/12/02 05:03:45;;;;;;;;;;;;;;;8.94;44.91;99681.56;4499020;31;34021;-85
2022/12/02 05:06:13;;;;;;;;;;;;;;;7.93;46.94;99684.59;4504944;31;34507;-85
2022/12/02 05:08:40;;;;;;;;;;;;;;;9.26;44.29;99679.84;4514338;31;34354;-85
2022/12/02 05:11:07;;;;;;;;;;;;;;;9.38;43.86;99674.09;4512883;31;33812;-86
2022/12/02 05:13:34;;;;;;;;;;;;;;;8.94;44.46;99681.56;4511738;31;34411;-86
2022/12/02 05:16:01;;;;;;;;;;;;;;;9.35;43.92;99676.62;4510717;31;34457;-84
2022/12/02 05:18:29;;;;;;;;;;;;;;;8.73;45.00;99680.13;4507280;31;33312;-85
2022/12/02 05:20:56;;;;;;;;;;;;;;;8.43;45.18;99685.28;4505413;31;33933;-86
2022/12/02 05:23:23;;;;;;;;;;;;;;;9.42;43.90;99684.56;4510249;31;33950;-86
2022/12/02 05:25:51;;;;;;;;;;;;;;;8.21;45.75;99683.72;4501805;31;34267;-86
2022/12/02 05:28:18;;;;;;;;;;;;;;;9.18;44.25;99686.53;4500167;31;33461;-85
2022/12/02 05:30:45;;;;;;;;;;;;;;;9.65;43.24;99679.97;4500389;31;34208;-85
2022/12/02 05:33:12;;;;;;;;;;;;;;;8.53;45.56;99689.91;4514267;31;34159;-86
2022/12/02 05:35:39;;;;;;;;;;;;;;;7.70;47.72;99688.16;4511414;31;34131;-84
2022/12/02 05:38:07;;;;;;;;;;;;;;;9.18;44.18;99682.22;4515225;31;33229;-85
2022/12/02 05:40:34;;;;;;;;;;;;;;;8.08;46.35;99691.97;4504714;31;33671;-85
2022/12/02 05:43:11;;;;;;;;;;;;;;;9.21;44.32;99687.50;4505309;31;34731;-85
2022/12/02 05:45:38;;;;;;;;;;;;;;;8.32;45.89;99688.34;4510641;31;34257;-85
2022/12/02 05:48:08;;;;;;;;;;;;;;;8.61;45.75;99691.84;4501850;31;33457;-85
2022/12/02 05:50:35;;;;;;;;;;;;;;;8.46;45.65;99692.28;4503944;31;34127;-86
2022/12/02 05:53:03;;;;;;;;;;;;;;;8.49;45.18;99692.38;4508894;31;33649;-84
2022/12/02 05:55:30;;;;;;;;;;;;;;;8.44;46.04;99691.34;4513928;31;35138;-84
2022/12/02 05:57:58;;;;;;;;;;;;;;;8.40;46.05;99681.75;4501464;31;32116;-84
2022/12/02 06:00:25;;;;;;;;;;;;;;;8.47;46.11;99694.00;4513272;31;34095;-86
2022/12/02 06:02:53;;;;;;;;;;;;;;;8.73;45.25;99698.22;4515869;31;34396;-85
2022/12/02 06:05:21;;;;;;;;;;;;;;;8.79;44.82;99697.53;4505176;31;33909;-86
2022/12/02 06:07:50;;;;;;;;;;;;;;;7.64;47.82;99699.16;4515513;31;34201;-88
2022/12/02 06:10:28;;;;;;;;;;;;;;;8.18;46.12;99696.59;4511054;31;34091;-87
2022/12/02 06:12:56;;;;;;;;;;;;;;;8.24;46.12;99701.03;4516018;31;34208;-87
2022/12/02 06:15:24;;;;;;;;;;;;;;;8.57;45.47;99706.38;4516054;31;33870;-87
2022/12/02 06:17:52;;;;;;;;;;;;;;;8.45;46.13;99700.88;4515526;31;33800;-86
2022/12/02 06:20:29;;;;;;;;;;;;;;;8.47;45.50;99709.53;4513933;31;34620;-85
2022/12/02 06:22:56;;;;;;;;;;;;;;;8.25;46.23;99713.13;4502339;31;35164;-83
2022/12/02 06:25:25;;;;;;;;;;;;;;;8.02;46.95;99712.41;4496214;31;33920;-87
2022/12/02 06:27:54;;;;;;;;;;;;;;;8.36;46.30;99716.03;4499346;31;33049;-85
2022/12/02 06:30:26;;;;;;;;;;;;;;;8.62;45.45;99709.97;4515727;31;33685;-85
2022/12/02 06:32:54;;;;;;;;;;;;;;;8.66;45.43;99711.81;4502016;31;34407;-86
2022/12/02 06:35:25;;;;;;;;;;;;;;;8.70;45.11;99721.41;4499037;31;33787;-87
2022/12/02 06:37:53;;;;;;;;;;;;;;;9.67;43.41;99714.56;4499718;31;33319;-87
2022/12/02 06:40:22;;;;;;;;;;;;;;;9.63;43.24;99711.84;4498431;31;33870;-87
2022/12/02 06:42:56;;;;;;;;;;;;;;;9.86;42.57;99704.66;4500138;31;34105;-86
2022/12/02 06:45:28;;;;;;;;;;;;;;;9.54;43.10;99712.47;4515525;31;34332;-87
2022/12/02 06:48:00;;;;;;;;;;;;;;;9.22;43.90;99722.88;4514074;31;32909;-86
2022/12/02 06:50:33;;;;;;;;;;;;;;;8.16;45.99;99723.19;4515562;31;34400;-86
2022/12/02 06:53:10;;;;;;;;;;;;;;;8.38;45.81;99729.94;4515448;31;34338;-86
2022/12/02 06:55:37;;;;;;;;;;;;;;;8.32;46.03;99735.72;4515831;31;34413;-87
2022/12/02 06:58:14;;;;;;;;;;;;;;;8.38;45.69;99730.81;4515950;31;33389;-87
2022/12/02 07:00:41;;;;;;;;;;;;;;;7.26;48.48;99733.97;4515833;31;33844;-86
2022/12/02 07:03:45;;;;;;;;;;;;;;;8.04;46.83;99723.69;4514351;31;34311;-86
2022/12/02 07:06:13;;;;;;;;;;;;;;;7.84;46.75;99727.31;4449994;32;33921;-86
2022/12/02 07:08:40;;;;;;;;;;;;;;;7.63;48.11;99736.09;4499966;31;33313;-87
2022/12/02 07:11:48;;;;;;;;;;;;;;;7.18;48.80;99735.41;4515398;31;34290;-87
2022/12/02 07:14:11;;;;;;;;;;;;;;;7.95;47.02;99738.84;4515270;31;34400;-87
2022/12/02 07:16:38;;;;;;;;;;;;;;;7.38;47.97;99736.09;4514325;31;34410;-86
2022/12/02 07:19:07;;;;;;;;;;;;;;;6.85;49.80;99741.09;4515457;31;33590;-86
2022/12/02 07:21:34;;;;;;;;;;;;;;;7.39;48.59;99738.75;4513690;31;33569;-87
2022/12/02 07:24:02;;;;;;;;;;;;;;;6.68;50.34;99743.06;4515229;31;34189;-86
2022/12/02 07:26:29;;;;;;;;;;;;;;;7.66;48.02;99740.50;4515500;31;34385;-86
2022/12/02 07:28:57;;;;;;;;;;;;;;;7.10;48.74;99752.31;4515047;31;34194;-87
2022/12/02 07:31:43;;;;;;;;;;;;;;;7.54;48.30;99740.97;4515242;31;34083;-86
2022/12/02 07:34:12;;;;;;;;;;;;;;;7.17;48.95;99744.84;4515117;31;34023;-87
2022/12/02 07:36:39;;;;;;;;;;;;;;;6.53;50.08;99750.22;4515358;31;34462;-86
2022/12/02 07:39:06;;;;;;;;;;;;;;;6.83;50.68;99748.78;4515296;31;33252;-87
2022/12/02 07:41:34;;;;;;;;;;;;;;;6.74;50.52;99747.53;4515140;31;34080;-86
2022/12/02 07:44:03;;;;;;;;;;;;;;;7.02;49.51;99749.44;4515144;31;33967;-86
2022/12/02 07:46:30;;;;;;;;;;;;;;;7.32;48.72;99742.81;4515202;31;34594;-86
2022/12/02 07:48:58;;;;;;;;;;;;;;;6.83;49.85;99758.22;4515131;31;33552;-87
2022/12/02 07:51:25;;;;;;;;;;;;;;;7.15;49.55;99759.38;4514109;31;33722;-86
2022/12/02 07:53:52;;;;;;;;;;;;;;;7.64;47.78;99748.16;4515041;31;35134;-86
2022/12/02 07:56:20;;;;;;;;;;;;;;;7.51;48.42;99752.06;4514990;31;34441;-86
2022/12/02 07:58:47;;;;;;;;;;;;;;;6.86;49.92;99762.56;4515268;31;33597;-87
2022/12/02 08:01:34;;;;;;;;;;;;;;;6.70;50.35;99763.72;4514937;31;34179;-86
2022/12/02 08:04:02;;;;;;;;;;;;;;;7.74;48.26;99752.81;4514921;31;34399;-86
2022/12/02 08:06:29;;;;;;;;;;;;;;;7.40;48.45;99755.09;4515050;31;34521;-87
2022/12/02 08:09:05;;;;;;;;;;;;;;;7.14;49.38;99760.19;4514805;31;33444;-86
2022/12/02 08:11:32;;;;;;;;;;;;;;;7.13;49.65;99758.44;4514769;31;34829;-87
2022/12/02 08:13:59;;;;;;;;;;;;;;;6.72;50.18;99759.50;4514824;31;34288;-86
2022/12/02 08:16:27;;;;;;;;;;;;;;;7.26;49.10;99745.16;4514855;31;33969;-86
2022/12/02 08:18:54;;;;;;;;;;;;;;;7.12;49.17;99761.81;4514875;31;33738;-86
2022/12/02 08:21:21;;;;;;;;;;;;;;;7.41;48.54;99759.41;4514693;31;34118;-86
2022/12/02 08:23:48;;;;;;;;;;;;;;;6.32;50.71;99764.00;4515108;31;35065;-87
2022/12/02 08:26:15;;;;;;;;;;;;;;;6.47;50.81;99766.28;4514845;31;33835;-86
2022/12/02 08:28:42;;;;;;;;;;;;;;;6.58;50.32;99769.28;4513436;31;33195;-86
2022/12/02 08:31:11;;;;;;;;;;;;;;;6.97;49.54;99766.44;4513579;31;34703;-86
2022/12/02 08:33:38;;;;;;;;;;;;;;;6.91;49.49;99763.66;4514684;31;33799;-87
2022/12/02 08:36:06;;;;;;;;;;;;;;;7.76;48.33;99756.31;4514733;31;34934;-86
2022/12/02 08:38:33;;;;;;;;;;;;;;;7.70;48.44;99757.84;4514619;31;34012;-87
2022/12/02 08:41:00;;;;;;;;;;;;;;;6.98;50.14;99765.63;4514750;31;34580;-87
2022/12/02 08:43:27;;;;;;;;;;;;;;;6.71;50.71;99763.78;4514560;31;34846;-86
2022/12/02 08:45:55;;;;;;;;;;;;;;;6.43;51.93;99766.13;4514673;31;35157;-87
2022/12/02 08:48:22;;;;;;;;;;;;;;;6.54;52.44;99772.56;4514448;31;33967;-87
2022/12/02 08:50:49;;;;;;;;;;;;;;;6.47;52.86;99768.00;4514529;31;34904;-86
2022/12/02 08:53:17;;;;;;;;;;;;;;;7.02;51.60;99767.50;4514528;31;35195;-86
2022/12/02 08:55:44;;;;;;;;;;;;;;;7.25;50.66;99765.75;4514574;31;34416;-87
2022/12/02 08:58:11;;;;;;;;;;;;;;;7.32;51.16;99760.84;4513646;31;34273;-86
2022/12/02 09:00:39;;;;;;;;;;;;;;;6.95;51.43;99762.94;4514383;31;33754;-87
2022/12/02 09:03:07;;;;;;;;;;;;;;;6.40;53.90;99772.00;4514778;31;34451;-86
2022/12/02 09:05:35;;;;;;;;;;;;;;;6.82;52.90;99769.34;4514494;31;34002;-86
2022/12/02 09:08:02;;;;;;;;;;;;;;;8.02;50.25;99762.34;4514418;31;33149;-87
2022/12/02 09:10:30;;;;;;;;;;;;;;;8.03;50.11;99760.62;4514155;31;34609;-84
2022/12/02 09:12:57;;;;;;;;;;;;;;;7.59;49.98;99766.91;4514196;31;34979;-87
2022/12/02 09:15:24;;;;;;;;;;;;;;;7.90;49.57;99759.38;4514133;31;34048;-86
2022/12/02 09:17:51;;;;;;;;;;;;;;;7.87;49.17;99766.13;4514249;31;33459;-85
2022/12/02 09:20:18;;;;;;;;;;;;;;;7.76;49.89;99753.72;4513994;31;33830;-86
2022/12/02 09:22:46;;;;;;;;;;;;;;;7.17;51.29;99764.59;4514228;31;35245;-87
2022/12/02 09:25:13;;;;;;;;;;;;;;;8.07;49.18;99754.78;4514099;31;35001;-86
2022/12/02 09:27:40;;;;;;;;;;;;;;;7.73;49.54;99763.97;4514044;31;34294;-87
2022/12/02 09:30:08;;;;;;;;;;;;;;;7.50;49.98;99760.62;4513870;31;34912;-86
2022/12/02 09:32:35;;;;;;;;;;;;;;;7.20;51.37;99770.75;4514072;31;33792;-86
2022/12/02 09:35:02;;;;;;;;;;;;;;;6.53;52.15;99768.25;4513949;31;34266;-87
2022/12/02 09:37:30;;;;;;;;;;;;;;;6.70;51.66;99767.16;4513932;31;33467;-87
2022/12/02 09:39:57;;;;;;;;;;;;;;;7.01;50.88;99778.63;4514133;31;33926;-87
2022/12/02 09:42:24;;;;;;;;;;;;;;;7.63;50.01;99761.03;4513988;31;34411;-87
2022/12/02 09:44:52;;;;;;;;;;;;;;;6.80;52.31;99773.56;4512334;31;34877;-87
2022/12/02 09:47:20;;;;;;;;;;;;;;;8.08;49.37;99761.69;4514014;31;33586;-87
2022/12/02 09:49:47;;;;;;;;;;;;;;;7.60;50.87;99763.50;4512207;31;34838;-86
2022/12/02 09:52:15;;;;;;;;;;;;;;;7.37;51.25;99762.72;4513716;31;35248;-87
2022/12/02 09:54:53;;;;;;;;;;;;;;;6.95;52.36;99773.25;4513578;31;34453;-87
2022/12/02 09:57:20;;;;;;;;;;;;;;;7.55;51.22;99758.19;4513556;31;33157;-87
2022/12/02 09:59:48;;;;;;;;;;;;;;;7.05;51.91;99768.50;4512163;31;34090;-87
2022/12/02 10:02:21;;;;;;;;;;;;;;;6.85;52.99;99765.97;4512245;31;33882;-86
2022/12/02 10:04:48;;;;;;;;;;;;;;;6.86;52.79;99770.31;4513561;31;34936;-87
2022/12/02 10:07:16;;;;;;;;;;;;;;;6.36;54.39;99765.00;4512530;31;33502;-87
2022/12/02 10:09:43;;;;;;;;;;;;;;;7.03;53.11;99761.50;4514321;31;34061;-87
2022/12/02 10:12:11;;;;;;;;;;;;;;;6.44;54.63;99762.72;4515832;31;33240;-87
2022/12/02 10:14:38;;;;;;;;;;;;;;;7.26;53.11;99754.59;4514487;31;34981;-87
2022/12/02 10:17:10;;;;;;;;;;;;;;;7.76;51.97;99758.91;4515913;31;34169;-87
2022/12/02 10:19:38;;;;;;;;;;;;;;;6.95;52.60;99761.22;4514584;31;34266;-87
2022/12/02 10:22:10;;;;;;;;;;;;;;;7.12;53.14;99766.13;4515789;31;34256;-87
2022/12/02 10:24:38;;;;;;;;;;;;;;;7.64;52.03;99761.06;4515664;31;34462;-87
2022/12/02 10:27:05;;;;;;;;;;;;;;;8.32;50.19;99755.53;4515926;31;33504;-87
2022/12/02 10:29:32;;;;;;;;;;;;;;;8.12;50.66;99758.38;4515530;31;34090;-87
2022/12/02 10:32:04;;;;;;;;;;;;;;;7.97;50.75;99755.28;4515626;31;34591;-87
2022/12/02 10:34:31;;;;;;;;;;;;;;;7.18;52.94;99759.47;4515612;31;34355;-87
2022/12/02 10:37:15;;;;;;;;;;;;;;;7.64;51.99;99761.06;4515706;31;33726;-87
2022/12/02 10:39:43;;;;;;;;;;;;;;;7.42;52.85;99756.00;4516090;31;34559;-87
2022/12/02 10:42:16;;;;;;;;;;;;;;;8.12;51.43;99753.19;4514439;31;33860;-87
2022/12/02 10:44:44;;;;;;;;;;;;;;;8.70;50.31;99749.84;4515318;31;34374;-87
2022/12/02 10:47:11;;;;;;;;;;;;;;;9.17;49.35;99746.88;4515758;31;33118;-86
2022/12/02 10:49:42;;;;;;;;;;;;;;;8.52;49.64;99750.19;4515535;31;33368;-87
2022/12/02 10:52:09;;;;;;;;;;;;;;;8.18;50.86;99748.25;4515501;31;34091;-88
2022/12/02 10:54:37;;;;;;;;;;;;;;;7.25;52.75;99747.69;4515561;31;33874;-87
2022/12/02 10:57:11;;;;;;;;;;;;;;;7.58;52.41;99745.41;4489162;31;33284;-86
2022/12/02 10:59:38;;;;;;;;;;;;;;;7.87;51.93;99740.31;4514282;31;34746;-87
2022/12/02 11:02:13;;;;;;;;;;;;;;;7.95;52.11;99746.59;4515573;31;35190;-87
2022/12/02 11:04:40;;;;;;;;;;;;;;;7.71;52.36;99744.09;4514116;31;35041;-87
2022/12/02 11:07:11;;;;;;;;;;;;;;;7.40;53.22;99743.06;4514247;31;34304;-87
2022/12/02 11:09:39;;;;;;;;;;;;;;;6.89;54.40;99744.66;4514072;31;33989;-87
2022/12/02 11:12:28;;;;;;;;;;;;;;;7.46;53.75;99742.37;4513818;31;35080;-87
2022/12/02 11:14:55;;;;;;;;;;;;;;;7.37;54.13;99744.66;4515221;31;35108;-86
2022/12/02 11:17:43;;;;;;;;;;;;;;;8.14;52.24;99748.06;4515300;31;33970;-87
2022/12/02 11:20:28;;;;;;;;;;;;;;;7.53;53.63;99739.19;4514927;31;33451;-87
2022/12/02 11:22:55;;;;;;;;;;;;;;;7.10;54.30;99742.87;4515428;31;34020;-86
2022/12/02 11:25:42;;;;;;;;;;;;;;;6.84;55.84;99741.91;4515292;31;35210;-87
2022/12/02 11:28:27;;;;;;;;;;;;;;;7.10;55.39;99742.87;4515245;31;33403;-87
2022/12/02 11:31:10;;;;;;;;;;;;;;;8.13;52.69;99736.88;4513831;31;33776;-87
2022/12/02 11:33:47;;;;;;;;;;;;;;;7.83;53.25;99733.31;4515342;31;35269;-87
2022/12/02 11:36:23;;;;;;;;;;;;;;;6.70;56.79;99741.41;4515427;31;34360;-87
2022/12/02 11:38:50;;;;;;;;;;;;;;;6.00;58.67;99743.84;4514100;31;33579;-87
2022/12/02 11:41:19;;;;;;;;;;;;;;;7.80;54.39;99729.81;4515541;31;33939;-88
2022/12/02 11:43:46;;;;;;;;;;;;;;;7.68;54.80;99729.38;4515462;31;35095;-87
2022/12/02 11:46:18;;;;;;;;;;;;;;;8.76;52.27;99721.59;4515615;31;33808;-87
2022/12/02 11:48:52;;;;;;;;;;;;;;;7.75;54.93;99730.47;4514068;31;34363;-87
2022/12/02 11:51:27;;;;;;;;;;;;;;;8.43;52.27;99728.34;4515259;31;34796;-87
2022/12/02 11:53:54;;;;;;;;;;;;;;;9.31;50.32;99721.34;4514312;31;34148;-87
2022/12/02 11:56:22;;;;;;;;;;;;;;;8.84;51.16;99721.81;4515117;31;34254;-87
2022/12/02 11:58:49;;;;;;;;;;;;;;;7.33;54.67;99725.63;4515353;31;33935;-87
2022/12/02 12:01:19;;;;;;;;;;;;;;;7.26;55.44;99724.53;4515334;31;33805;-87
2022/12/02 12:03:47;;;;;;;;;;;;;;;8.38;52.69;99719.59;4515017;31;34180;-87
2022/12/02 12:06:15;;;;;;;;;;;;;;;8.36;52.65;99731.53;4515037;31;35063;-87
2022/12/02 12:08:43;;;;;;;;;;;;;;;8.08;53.98;99724.66;4514856;31;34285;-86
2022/12/02 12:11:22;;;;;;;;;;;;;;;8.51;52.83;99722.56;4514985;31;34533;-87
2022/12/02 12:14:08;;;;;;;;;;;;;;;7.49;54.69;99725.31;4515302;31;34351;-87
2022/12/02 12:16:37;;;;;;;;;;;;;;;7.98;53.64;99731.22;4514821;31;35221;-87
2022/12/02 12:19:11;;;;;;;;;;;;;;;7.41;54.82;99724.19;4514956;31;34301;-86
2022/12/02 12:21:41;;;;;;;;;;;;;;;7.84;53.38;99724.72;4514824;31;33780;-86
2022/12/02 12:24:17;;;;;;;;;;;;;;;8.15;52.87;99722.31;4514713;31;34275;-87
2022/12/02 12:26:45;;;;;;;;;;;;;;;7.85;53.89;99729.09;4514807;31;33972;-87
2022/12/02 12:29:12;;;;;;;;;;;;;;;7.88;53.17;99737.81;4514894;31;34192;-87
2022/12/02 12:31:40;;;;;;;;;;;;;;;7.41;54.98;99729.34;4513979;31;33841;-87
2022/12/02 12:34:07;;;;;;;;;;;;;;;8.29;52.86;99730.47;4514639;31;34968;-87
2022/12/02 12:36:35;;;;;;;;;;;;;;;8.07;53.08;99728.94;4515119;31;34482;-87
2022/12/02 12:39:03;;;;;;;;;;;;;;;7.51;55.32;99727.97;4514756;31;33426;-87
2022/12/02 12:41:30;;;;;;;;;;;;;;;8.56;52.69;99724.41;4515012;31;35214;-87
2022/12/02 12:44:17;;;;;;;;;;;;;;;7.74;53.94;99728.72;4514814;31;35117;-86
2022/12/02 12:46:44;;;;;;;;;;;;;;;8.11;53.91;99719.59;4514627;31;34035;-87
2022/12/02 12:49:12;;;;;;;;;;;;;;;6.80;57.28;99732.31;4514679;31;33193;-86
2022/12/02 12:51:39;;;;;;;;;;;;;;;6.86;57.83;99729.06;4514750;31;33732;-87
2022/12/02 12:54:06;;;;;;;;;;;;;;;8.00;54.38;99727.88;4514361;31;34961;-87
2022/12/02 12:56:33;;;;;;;;;;;;;;;7.01;55.91;99739.97;4514642;31;34678;-87
2022/12/02 12:59:00;;;;;;;;;;;;;;;7.29;56.16;99728.91;4514679;31;34014;-87
2022/12/02 13:01:28;;;;;;;;;;;;;;;8.72;52.74;99727.50;4514527;31;34572;-87
2022/12/02 13:03:56;;;;;;;;;;;;;;;8.43;53.06;99723.19;4514819;31;34291;-88
2022/12/02 13:06:23;;;;;;;;;;;;;;;8.79;51.67;99720.81;4514772;31;35297;-87
2022/12/02 13:08:50;;;;;;;;;;;;;;;7.86;54.44;99723.09;4514422;31;32867;-87